createdAt,value
2018-09-03T00:01:45.179Z,5.50
2018-09-03T00:04:48.992Z,4.67
2018-09-03T00:07:52.657Z,4.60
2018-09-03T00:10:56.294Z,4.97
2018-09-03T00:13:59.994Z,4.60
2018-09-03T00:17:04.038Z,5.00
2018-09-03T00:20:07.723Z,5.03
2018-09-03T00:23:11.352Z,4.77
2018-09-03T00:26:15.048Z,4.90
2018-09-03T00:29:18.698Z,5.10
2018-09-03T00:32:27.607Z,4.80
2018-09-03T00:35:36.452Z,4.63
2018-09-03T00:38:45.225Z,4.80
2018-09-03T00:41:54.150Z,4.83
2018-09-03T00:46:05.670Z,4.67
2018-09-03T00:49:09.310Z,5.00
2018-09-03T00:52:12.996Z,4.30
2018-09-03T00:55:16.680Z,4.90
2018-09-03T00:58:20.450Z,4.97
2018-09-03T01:01:24.051Z,4.60
2018-09-03T01:04:27.647Z,4.90
2018-09-03T01:07:31.320Z,5.43
2018-09-03T01:10:34.970Z,4.87
2018-09-03T01:13:38.625Z,5.00
2018-09-03T01:16:42.307Z,5.03
2018-09-03T01:19:45.879Z,5.37
2018-09-03T01:22:49.503Z,5.13
2018-09-03T01:25:53.210Z,4.90
2018-09-03T01:28:56.831Z,5.10
2018-09-03T01:32:00.544Z,5.20
2018-09-03T01:35:04.205Z,5.30
2018-09-03T01:38:07.866Z,4.40
2018-09-03T01:41:11.538Z,5.10
2018-09-03T01:44:15.283Z,5.23
2018-09-03T01:47:18.949Z,5.20
2018-09-03T01:50:22.528Z,5.00
2018-09-03T01:53:26.220Z,5.13
2018-09-03T01:56:29.887Z,5.50
2018-09-03T01:59:33.550Z,5.57
2018-09-03T02:02:37.201Z,5.50
2018-09-03T02:05:40.939Z,4.80
2018-09-03T02:08:44.748Z,5.40
2018-09-03T02:11:48.564Z,5.13
2018-09-03T02:14:52.276Z,5.23
2018-09-03T02:17:55.915Z,5.40
2018-09-03T02:20:59.689Z,5.30
2018-09-03T02:24:03.515Z,5.20
2018-09-03T02:27:07.309Z,5.40
2018-09-03T02:30:10.894Z,5.10
2018-09-03T02:33:14.636Z,5.17
2018-09-03T02:36:18.491Z,5.07
2018-09-03T02:39:22.219Z,5.90
2018-09-03T02:42:25.844Z,5.10
2018-09-03T02:45:29.539Z,5.70
2018-09-03T02:48:33.142Z,5.50
2018-09-03T02:51:36.845Z,5.40
2018-09-03T02:54:40.539Z,6.20
2018-09-03T02:57:44.250Z,5.80
2018-09-03T03:00:47.886Z,5.80
2018-09-03T03:03:51.601Z,5.70
2018-09-03T03:06:55.311Z,5.87
2018-09-03T03:09:59.020Z,5.50
2018-09-03T03:13:02.660Z,5.60
2018-09-03T03:16:06.428Z,5.03
2018-09-03T03:19:10.019Z,5.40
2018-09-03T03:22:13.661Z,5.90
2018-09-03T03:25:17.381Z,5.80
2018-09-03T03:28:20.949Z,5.43
2018-09-03T03:31:24.682Z,5.63
2018-09-03T03:34:28.265Z,5.77
2018-09-03T03:37:31.917Z,5.50
2018-09-03T03:40:35.631Z,6.43
2018-09-03T03:43:39.244Z,5.40
2018-09-03T03:46:42.881Z,5.73
2018-09-03T03:49:46.746Z,5.37
2018-09-03T03:52:50.421Z,5.70
2018-09-03T03:55:54.126Z,5.40
2018-09-03T03:58:57.926Z,5.63
2018-09-03T04:02:01.535Z,5.90
2018-09-03T04:05:05.571Z,5.90
2018-09-03T04:08:09.240Z,5.97
2018-09-03T04:11:12.841Z,6.00
2018-09-03T04:14:16.536Z,6.30
2018-09-03T04:17:20.183Z,6.20
2018-09-03T04:20:23.845Z,6.33
2018-09-03T04:23:27.597Z,6.50
2018-09-03T04:26:31.108Z,7.13
2018-09-03T04:29:34.780Z,6.60
2018-09-03T04:32:38.559Z,6.70
2018-09-03T04:35:42.213Z,6.30
2018-09-03T04:38:46.027Z,6.50
2018-09-03T04:41:49.652Z,6.97
2018-09-03T04:44:53.241Z,7.00
2018-09-03T04:47:57.137Z,6.50
2018-09-03T04:51:00.811Z,6.80
2018-09-03T04:54:04.527Z,6.77
2018-09-03T04:57:08.220Z,6.63
2018-09-03T05:00:14.381Z,6.83
2018-09-03T05:03:18.072Z,7.20
2018-09-03T05:06:21.649Z,6.63
2018-09-03T05:09:25.431Z,7.10
2018-09-03T05:12:29.091Z,6.50
2018-09-03T05:15:32.797Z,6.27
2018-09-03T05:18:36.491Z,6.90
2018-09-03T05:21:40.183Z,6.80
2018-09-03T05:24:43.911Z,7.70
2018-09-03T05:27:47.580Z,6.83
2018-09-03T05:30:51.242Z,6.70
2018-09-03T05:33:54.873Z,7.30
2018-09-03T05:36:58.528Z,7.17
2018-09-03T05:40:02.359Z,7.90
2018-09-03T05:43:06.156Z,7.60
2018-09-03T05:46:09.663Z,8.33
2018-09-03T05:49:13.349Z,8.70
2018-09-03T05:52:17.198Z,7.60
2018-09-03T05:55:21.246Z,8.47
2018-09-03T05:58:25.050Z,8.40
2018-09-03T06:01:28.771Z,9.40
2018-09-03T06:04:32.527Z,8.60
2018-09-03T06:07:36.112Z,8.60
2018-09-03T06:10:39.909Z,10.40
2018-09-03T06:13:43.448Z,9.07
2018-09-03T06:16:47.072Z,9.77
2018-09-03T06:19:51.007Z,9.63
2018-09-03T06:22:54.571Z,8.80
2018-09-03T06:25:58.240Z,9.23
2018-09-03T06:29:01.943Z,9.50
2018-09-03T06:32:05.551Z,9.17
2018-09-03T06:35:09.251Z,9.50
2018-09-03T06:38:12.834Z,8.73
2018-09-03T06:41:16.453Z,9.20
2018-09-03T06:44:20.152Z,8.47
2018-09-03T06:47:23.898Z,9.83
2018-09-03T06:50:27.541Z,9.70
2018-09-03T06:53:31.362Z,10.20
2018-09-03T06:56:34.961Z,9.50
2018-09-03T06:59:38.663Z,10.10
2018-09-03T07:02:42.791Z,9.80
2018-09-03T07:05:46.637Z,9.00
2018-09-03T07:08:50.184Z,9.70
2018-09-03T07:11:53.829Z,9.70
2018-09-03T07:14:57.448Z,10.67
2018-09-03T07:18:01.142Z,10.00
2018-09-03T07:21:04.857Z,10.00
2018-09-03T07:24:08.427Z,10.20
2018-09-03T07:27:12.054Z,9.80
2018-09-03T07:30:15.826Z,10.87
2018-09-03T07:33:19.657Z,10.10
2018-09-03T07:36:23.232Z,9.13
2018-09-03T07:39:26.932Z,10.80
2018-09-03T07:42:30.943Z,11.40
2018-09-03T07:45:34.547Z,10.27
2018-09-03T07:48:38.197Z,10.80
2018-09-03T07:51:41.923Z,10.23
2018-09-03T07:54:45.672Z,11.10
2018-09-03T07:57:49.294Z,10.83
2018-09-03T08:00:53.080Z,10.13
2018-09-03T08:03:56.754Z,10.73
2018-09-03T08:07:00.372Z,11.30
2018-09-03T08:10:04.024Z,11.40
2018-09-03T08:13:07.684Z,11.03
2018-09-03T08:16:12.125Z,10.97
2018-09-03T08:19:15.818Z,11.07
2018-09-03T08:22:19.453Z,11.20
2018-09-03T08:25:23.167Z,10.97
2018-09-03T08:28:26.909Z,10.93
2018-09-03T08:31:30.568Z,10.90
2018-09-03T08:34:34.184Z,12.20
2018-09-03T08:37:37.808Z,10.70
2018-09-03T08:40:41.503Z,11.20
2018-09-03T08:43:45.118Z,11.20
2018-09-03T08:46:48.733Z,11.47
2018-09-03T08:49:52.354Z,11.30
2018-09-03T08:52:56.175Z,11.33
2018-09-03T08:55:59.791Z,10.60
2018-09-03T08:59:03.416Z,12.50
2018-09-03T09:02:07.194Z,12.03
2018-09-03T09:05:10.754Z,12.30
2018-09-03T09:08:14.425Z,12.30
2018-09-03T09:11:18.250Z,11.53
2018-09-03T09:14:21.833Z,11.97
2018-09-03T09:17:25.507Z,11.57
2018-09-03T09:20:29.143Z,12.23
2018-09-03T09:23:32.705Z,13.00
2018-09-03T09:26:36.294Z,12.77
2018-09-03T09:29:39.834Z,12.23
2018-09-03T09:32:43.531Z,13.63
2018-09-03T09:35:47.244Z,13.83
2018-09-03T09:38:50.931Z,14.93
2018-09-03T09:41:54.551Z,14.03
2018-09-03T09:44:58.171Z,14.17
2018-09-03T09:48:01.970Z,13.97
2018-09-03T09:51:05.630Z,15.60
2018-09-03T09:54:09.368Z,14.57
2018-09-03T09:57:13.010Z,14.07
2018-09-03T10:00:21.893Z,14.27
2018-09-03T10:03:25.470Z,17.97
2018-09-03T10:06:29.135Z,19.00
2018-09-03T10:09:32.719Z,17.30
2018-09-03T10:12:36.396Z,19.17
2018-09-03T10:15:40.034Z,17.57
2018-09-03T10:18:43.664Z,18.07
2018-09-03T10:21:47.347Z,18.43
2018-09-03T10:24:51.044Z,18.67
2018-09-03T10:27:54.665Z,18.80
2018-09-03T10:30:58.334Z,19.00
2018-09-03T10:34:01.987Z,18.33
2018-09-03T10:37:06.325Z,19.23
2018-09-03T10:40:09.966Z,20.23
2018-09-03T10:43:13.671Z,18.40
2018-09-03T10:46:17.292Z,17.53
2018-09-03T10:49:21.024Z,18.40
2018-09-03T10:52:24.695Z,17.60
2018-09-03T10:55:28.340Z,18.60
2018-09-03T10:58:32.018Z,17.40
2018-09-03T11:01:35.564Z,18.70
2018-09-03T11:04:39.204Z,19.17
2018-09-03T11:07:42.836Z,22.13
2018-09-03T11:10:46.499Z,20.57
2018-09-03T11:13:50.265Z,19.90
2018-09-03T11:16:53.904Z,20.17
2018-09-03T11:19:59.835Z,19.33
2018-09-03T11:23:03.382Z,18.40
2018-09-03T11:26:07.264Z,20.80
2018-09-03T11:29:10.907Z,20.03
2018-09-03T11:32:14.619Z,18.47
2018-09-03T11:35:18.336Z,19.20
2018-09-03T11:38:21.914Z,19.40
2018-09-03T11:41:25.561Z,19.80
2018-09-03T11:44:29.172Z,18.20
2018-09-03T11:47:32.886Z,18.70
2018-09-03T11:50:36.533Z,20.27
2018-09-03T11:53:40.330Z,18.70
2018-09-03T11:56:44.010Z,19.97
2018-09-03T11:59:47.650Z,19.07
2018-09-03T12:02:51.321Z,20.93
2018-09-03T12:05:56.166Z,20.30
2018-09-03T12:08:59.830Z,21.57
2018-09-03T12:12:03.490Z,20.33
2018-09-03T12:16:11.814Z,21.50
2018-09-03T12:19:15.620Z,21.53
2018-09-03T12:22:19.256Z,21.03
2018-09-03T12:25:22.913Z,21.57
2018-09-03T12:28:26.618Z,22.70
2018-09-03T12:31:30.301Z,21.17
2018-09-03T12:34:33.886Z,21.50
2018-09-03T12:37:37.548Z,20.17
2018-09-03T12:40:41.320Z,20.37
2018-09-03T12:43:45.086Z,20.83
2018-09-03T12:46:48.802Z,20.90
2018-09-03T12:49:52.492Z,21.37
2018-09-03T12:52:56.254Z,20.47
2018-09-03T12:56:00.011Z,20.70
2018-09-03T12:59:03.857Z,19.50
2018-09-03T13:02:10.671Z,21.60
2018-09-03T13:05:14.422Z,20.37
2018-09-03T13:08:18.085Z,20.13
2018-09-03T13:11:21.741Z,18.73
2018-09-03T13:14:25.398Z,19.03
2018-09-03T13:17:29.320Z,19.10
2018-09-03T13:20:32.936Z,18.43
2018-09-03T13:23:36.677Z,18.27
2018-09-03T13:26:40.431Z,18.33
2018-09-03T13:29:44.168Z,18.40
2018-09-03T13:32:47.836Z,18.10
2018-09-03T13:35:51.532Z,17.70
2018-09-03T13:38:55.322Z,18.30
2018-09-03T13:41:59.172Z,18.40
2018-09-03T13:45:02.897Z,16.97
2018-09-03T13:48:06.571Z,17.40
2018-09-03T13:51:10.212Z,17.30
2018-09-03T13:54:14.127Z,15.23
2018-09-03T13:57:17.825Z,14.70
2018-09-03T14:00:21.530Z,15.30
2018-09-03T14:03:25.199Z,15.03
2018-09-03T14:06:28.960Z,16.40
2018-09-03T14:09:33.764Z,15.50
2018-09-03T14:12:37.536Z,16.07
2018-09-03T14:15:42.107Z,16.40
2018-09-03T14:18:45.873Z,15.63
2018-09-03T14:21:49.706Z,15.50
2018-09-03T14:24:53.544Z,15.27
2018-09-03T14:27:57.333Z,16.47
2018-09-03T14:31:01.167Z,15.67
2018-09-03T14:34:04.882Z,15.17
2018-09-03T14:37:08.798Z,15.23
2018-09-03T14:40:12.495Z,14.63
2018-09-03T14:43:16.175Z,16.00
2018-09-03T14:46:20.138Z,15.70
2018-09-03T14:49:23.711Z,16.60
2018-09-03T14:52:27.847Z,15.23
2018-09-03T14:55:31.528Z,14.80
2018-09-03T14:58:35.178Z,15.40
2018-09-03T15:01:39.134Z,15.80
2018-09-03T15:04:42.897Z,16.13
2018-09-03T15:07:46.595Z,15.90
2018-09-03T15:10:50.297Z,15.13
2018-09-03T15:13:58.113Z,16.00
2018-09-03T15:17:01.833Z,15.77
2018-09-03T15:20:06.467Z,16.30
2018-09-03T15:23:10.072Z,15.40
2018-09-03T15:26:13.910Z,15.60
2018-09-03T15:29:17.648Z,15.43
2018-09-03T15:32:21.477Z,14.90
2018-09-03T15:35:25.163Z,15.90
2018-09-03T15:38:28.829Z,15.20
2018-09-03T15:41:32.502Z,15.40
2018-09-03T15:44:36.150Z,16.03
2018-09-03T15:47:39.945Z,16.20
2018-09-03T15:50:43.678Z,15.47
2018-09-03T15:53:47.480Z,15.70
2018-09-03T15:56:51.319Z,15.27
2018-09-03T15:59:54.993Z,15.03
2018-09-03T16:02:58.783Z,15.73
2018-09-03T16:06:02.423Z,15.40
2018-09-03T16:09:09.142Z,14.70
2018-09-03T16:12:12.787Z,14.10
2018-09-03T16:15:17.214Z,15.03
2018-09-03T16:18:20.929Z,15.47
2018-09-03T16:21:24.687Z,14.60
2018-09-03T16:24:28.405Z,14.57
2018-09-03T16:27:32.323Z,13.90
2018-09-03T16:30:36.030Z,14.90
2018-09-03T16:33:39.974Z,13.93
2018-09-03T16:36:43.661Z,14.17
2018-09-03T16:39:47.447Z,15.27
2018-09-03T16:42:51.092Z,15.57
2018-09-03T16:45:54.805Z,14.33
2018-09-03T16:48:58.597Z,15.60
2018-09-03T16:52:02.360Z,14.60
2018-09-03T16:55:06.216Z,15.20
2018-09-03T16:58:09.894Z,13.30
2018-09-03T17:01:13.820Z,15.00
2018-09-03T17:04:17.458Z,14.70
2018-09-03T17:07:21.224Z,16.00
2018-09-03T17:10:25.118Z,14.57
2018-09-03T17:13:28.758Z,15.07
2018-09-03T17:16:32.467Z,15.13
2018-09-03T17:19:36.184Z,15.77
2018-09-03T17:22:39.850Z,15.93
2018-09-03T17:25:43.633Z,15.03
2018-09-03T17:28:47.300Z,15.93
2018-09-03T17:31:51.015Z,15.80
2018-09-03T17:34:54.765Z,14.90
2018-09-03T17:37:58.516Z,15.53
2018-09-03T17:41:02.266Z,15.40
2018-09-03T17:44:06.169Z,16.07
2018-09-03T17:47:09.855Z,15.60
2018-09-03T17:50:13.600Z,14.50
2018-09-03T17:53:17.431Z,15.30
2018-09-03T17:56:21.187Z,16.37
2018-09-03T17:59:25.075Z,15.83
2018-09-03T18:02:28.792Z,16.30
2018-09-03T18:05:32.606Z,16.90
2018-09-03T18:08:36.389Z,16.37
2018-09-03T18:11:40.199Z,16.67
2018-09-03T18:14:43.954Z,15.57
2018-09-03T18:17:47.659Z,15.73
2018-09-03T18:20:51.545Z,15.93
2018-09-03T18:23:55.284Z,16.10
2018-09-03T18:26:59.104Z,17.83
2018-09-03T18:30:02.939Z,18.30
2018-09-03T18:33:06.825Z,20.53
2018-09-03T18:36:10.539Z,18.70
2018-09-03T18:39:14.360Z,19.83
2018-09-03T18:42:18.264Z,19.17
2018-09-03T18:45:22.216Z,21.97
2018-09-03T18:48:26.316Z,21.53
2018-09-03T18:51:30.309Z,22.37
2018-09-03T18:54:34.148Z,23.80
2018-09-03T18:57:38.296Z,25.60
2018-09-03T19:00:42.137Z,22.93
2018-09-03T19:03:46.204Z,25.80
2018-09-03T19:06:50.023Z,26.80
2018-09-03T19:09:53.892Z,25.27
2018-09-03T19:12:57.886Z,26.50
2018-09-03T19:16:02.059Z,27.70
2018-09-03T19:19:06.043Z,26.07
2018-09-03T19:22:10.116Z,26.37
2018-09-03T19:25:13.896Z,25.53
2018-09-03T19:28:17.875Z,24.90
2018-09-03T19:31:21.699Z,27.57
2018-09-03T19:34:25.544Z,25.00
2018-09-03T19:37:29.318Z,27.67
2018-09-03T19:40:33.115Z,28.40
2018-09-03T19:43:36.900Z,27.67
2018-09-03T19:46:40.671Z,29.10
2018-09-03T19:49:44.514Z,29.03
2018-09-03T19:52:48.235Z,27.17
2018-09-03T19:55:52.217Z,28.57
2018-09-03T19:58:56.095Z,29.13
2018-09-03T20:02:00.133Z,29.23
2018-09-03T20:05:04.028Z,29.13
2018-09-03T20:08:10.534Z,29.90
2018-09-03T20:11:14.551Z,27.80
2018-09-03T20:14:18.343Z,30.17
2018-09-03T20:17:23.701Z,29.10
2018-09-03T20:20:27.475Z,29.60
2018-09-03T20:23:31.302Z,29.37
2018-09-03T20:26:35.836Z,31.13
2018-09-03T20:29:39.951Z,30.87
2018-09-03T20:32:43.808Z,31.97
2018-09-03T20:35:47.619Z,30.47
2018-09-03T20:38:52.271Z,29.37
2018-09-03T20:41:56.050Z,33.10
2018-09-03T20:44:59.712Z,31.40
2018-09-03T20:48:03.592Z,31.83
2018-09-03T20:51:09.050Z,31.00
2018-09-03T20:54:12.770Z,31.10
2018-09-03T20:57:16.544Z,34.43
2018-09-03T21:00:20.352Z,32.73
2018-09-03T21:03:24.044Z,32.27
2018-09-03T21:06:27.872Z,30.20
2018-09-03T21:09:31.507Z,31.13
2018-09-03T21:12:35.211Z,30.97
2018-09-03T21:15:39.069Z,32.77
2018-09-03T21:18:42.707Z,29.90
2018-09-03T21:21:46.418Z,32.07
2018-09-03T21:24:50.119Z,32.37
2018-09-03T21:27:54.037Z,32.20
2018-09-03T21:30:57.750Z,31.17
2018-09-03T21:34:01.501Z,33.20
2018-09-03T21:37:05.340Z,32.73
2018-09-03T21:40:09.179Z,34.60
2018-09-03T21:43:13.017Z,31.70
2018-09-03T21:46:16.693Z,33.83
2018-09-03T21:49:20.424Z,32.70
2018-09-03T21:52:24.238Z,34.33
2018-09-03T21:55:28.031Z,35.67
2018-09-03T21:58:31.720Z,31.77
2018-09-03T22:01:35.384Z,31.43
2018-09-03T22:04:40.962Z,34.40
2018-09-03T22:07:44.861Z,31.33
2018-09-03T22:10:48.522Z,33.93
2018-09-03T22:13:52.207Z,30.70
2018-09-03T22:16:55.875Z,31.63
2018-09-03T22:19:59.604Z,33.03
2018-09-03T22:23:03.227Z,34.40
2018-09-03T22:26:07.146Z,35.23
2018-09-03T22:29:10.846Z,33.90
2018-09-03T22:32:14.642Z,31.87
2018-09-03T22:35:18.346Z,35.10
2018-09-03T22:38:22.318Z,36.43
2018-09-03T22:41:26.023Z,36.17
2018-09-03T22:44:29.749Z,32.90
2018-09-03T22:47:33.466Z,32.33
2018-09-03T22:50:37.116Z,31.90
2018-09-03T22:53:40.798Z,29.43
2018-09-03T22:56:44.428Z,36.93
2018-09-03T22:59:48.142Z,35.27
2018-09-03T23:02:52.022Z,35.70
2018-09-03T23:05:55.641Z,34.27
2018-09-03T23:08:59.407Z,30.50
2018-09-03T23:12:03.146Z,31.50
2018-09-03T23:15:07.522Z,29.90
2018-09-03T23:18:11.213Z,32.83
2018-09-03T23:21:15.011Z,29.80
2018-09-03T23:24:18.671Z,31.97
2018-09-03T23:27:22.356Z,33.57
2018-09-03T23:30:26.008Z,33.43
2018-09-03T23:33:29.674Z,31.30
2018-09-03T23:36:33.451Z,28.70
2018-09-03T23:39:37.072Z,29.43
2018-09-03T23:42:40.746Z,29.57
2018-09-03T23:45:44.446Z,32.27
2018-09-03T23:48:48.108Z,35.50
2018-09-03T23:51:51.863Z,33.60
2018-09-03T23:54:55.503Z,34.43
2018-09-03T23:57:59.213Z,35.40
